sensor_id;sensor_type;location;lat;lon;timestamp;temperature;humidity
1415;DHT22;702;49.466;11.086;2022-09-09T00:00:26;17.40;80.50
1415;DHT22;702;49.466;11.086;2022-09-09T00:03:02;17.70;80.20
1415;DHT22;702;49.466;11.086;2022-09-09T00:05:40;17.60;80.00
1415;DHT22;702;49.466;11.086;2022-09-09T00:08:17;17.40;79.90
1415;DHT22;702;49.466;11.086;2022-09-09T00:10:51;17.10;80.60
1415;DHT22;702;49.466;11.086;2022-09-09T00:13:28;17.10;80.80
1415;DHT22;702;49.466;11.086;2022-09-09T00:16:04;17.10;80.30
1415;DHT22;702;49.466;11.086;2022-09-09T00:18:51;17.30;80.30
1415;DHT22;702;49.466;11.086;2022-09-09T00:21:25;17.50;80.00
1415;DHT22;702;49.466;11.086;2022-09-09T00:24:00;17.50;79.70
1415;DHT22;702;49.466;11.086;2022-09-09T00:26:37;17.40;79.50
1415;DHT22;702;49.466;11.086;2022-09-09T00:29:26;17.10;80.50
1415;DHT22;702;49.466;11.086;2022-09-09T00:32:05;17.30;80.10
1415;DHT22;702;49.466;11.086;2022-09-09T00:34:47;16.90;80.10
1415;DHT22;702;49.466;11.086;2022-09-09T00:37:18;17.00;80.60
1415;DHT22;702;49.466;11.086;2022-09-09T00:39:48;16.70;81.10
1415;DHT22;702;49.466;11.086;2022-09-09T00:42:20;16.90;81.00
1415;DHT22;702;49.466;11.086;2022-09-09T00:44:58;16.90;81.00
1415;DHT22;702;49.466;11.086;2022-09-09T00:47:40;16.80;81.00
1415;DHT22;702;49.466;11.086;2022-09-09T00:50:32;16.80;81.00
1415;DHT22;702;49.466;11.086;2022-09-09T00:53:13;16.70;81.30
1415;DHT22;702;49.466;11.086;2022-09-09T00:55:50;16.90;81.00
1415;DHT22;702;49.466;11.086;2022-09-09T00:58:21;17.00;80.60
1415;DHT22;702;49.466;11.086;2022-09-09T01:00:54;17.00;80.90
1415;DHT22;702;49.466;11.086;2022-09-09T01:03:33;17.20;80.60
1415;DHT22;702;49.466;11.086;2022-09-09T01:06:12;17.40;79.90
1415;DHT22;702;49.466;11.086;2022-09-09T01:09:05;17.30;79.80
1415;DHT22;702;49.466;11.086;2022-09-09T01:11:48;17.10;80.10
1415;DHT22;702;49.466;11.086;2022-09-09T01:14:30;16.80;80.50
1415;DHT22;702;49.466;11.086;2022-09-09T01:17:11;17.10;80.50
1415;DHT22;702;49.466;11.086;2022-09-09T01:19:56;17.20;80.60
1415;DHT22;702;49.466;11.086;2022-09-09T01:22:36;17.00;80.40
1415;DHT22;702;49.466;11.086;2022-09-09T01:25:22;17.00;80.50
1415;DHT22;702;49.466;11.086;2022-09-09T01:27:59;17.00;80.70
1415;DHT22;702;49.466;11.086;2022-09-09T01:30:28;16.60;81.20
1415;DHT22;702;49.466;11.086;2022-09-09T01:32:57;16.70;81.50
1415;DHT22;702;49.466;11.086;2022-09-09T01:35:35;16.70;81.50
1415;DHT22;702;49.466;11.086;2022-09-09T01:38:07;16.90;81.30
1415;DHT22;702;49.466;11.086;2022-09-09T01:40:34;17.00;80.90
1415;DHT22;702;49.466;11.086;2022-09-09T01:43:04;16.90;81.00
1415;DHT22;702;49.466;11.086;2022-09-09T01:45:32;16.70;81.20
1415;DHT22;702;49.466;11.086;2022-09-09T01:48:00;16.70;81.60
1415;DHT22;702;49.466;11.086;2022-09-09T01:50:29;16.90;81.30
1415;DHT22;702;49.466;11.086;2022-09-09T01:52:59;16.90;81.60
1415;DHT22;702;49.466;11.086;2022-09-09T01:55:30;17.10;81.30
1415;DHT22;702;49.466;11.086;2022-09-09T01:58:14;17.20;80.90
1415;DHT22;702;49.466;11.086;2022-09-09T02:00:52;17.30;80.50
1415;DHT22;702;49.466;11.086;2022-09-09T02:03:27;17.10;80.80
1415;DHT22;702;49.466;11.086;2022-09-09T02:06:02;16.90;81.30
1415;DHT22;702;49.466;11.086;2022-09-09T02:08:41;17.10;81.20
1415;DHT22;702;49.466;11.086;2022-09-09T02:11:13;17.60;80.40
1415;DHT22;702;49.466;11.086;2022-09-09T02:13:44;17.80;79.40
1415;DHT22;702;49.466;11.086;2022-09-09T02:16:17;17.80;79.80
1415;DHT22;702;49.466;11.086;2022-09-09T02:18:51;17.30;80.30
1415;DHT22;702;49.466;11.086;2022-09-09T02:21:21;17.40;80.60
1415;DHT22;702;49.466;11.086;2022-09-09T02:23:50;16.80;81.10
1415;DHT22;702;49.466;11.086;2022-09-09T02:26:20;16.30;82.10
1415;DHT22;702;49.466;11.086;2022-09-09T02:28:51;16.40;82.40
1415;DHT22;702;49.466;11.086;2022-09-09T02:31:22;16.40;82.10
1415;DHT22;702;49.466;11.086;2022-09-09T02:33:54;16.60;82.20
1415;DHT22;702;49.466;11.086;2022-09-09T02:36:25;16.70;81.70
1415;DHT22;702;49.466;11.086;2022-09-09T02:38:56;17.10;81.10
1415;DHT22;702;49.466;11.086;2022-09-09T02:41:27;16.80;81.90
1415;DHT22;702;49.466;11.086;2022-09-09T02:43:58;16.80;82.10
1415;DHT22;702;49.466;11.086;2022-09-09T02:46:36;16.90;81.90
1415;DHT22;702;49.466;11.086;2022-09-09T02:49:21;16.70;81.80
1415;DHT22;702;49.466;11.086;2022-09-09T02:51:57;16.60;82.10
1415;DHT22;702;49.466;11.086;2022-09-09T02:54:28;16.80;81.90
1415;DHT22;702;49.466;11.086;2022-09-09T02:57:03;17.10;81.10
1415;DHT22;702;49.466;11.086;2022-09-09T02:59:34;16.80;81.50
1415;DHT22;702;49.466;11.086;2022-09-09T03:02:01;16.70;81.40
1415;DHT22;702;49.466;11.086;2022-09-09T03:04:31;16.90;82.00
1415;DHT22;702;49.466;11.086;2022-09-09T03:06:58;16.90;81.40
1415;DHT22;702;49.466;11.086;2022-09-09T03:09:25;16.80;81.50
1415;DHT22;702;49.466;11.086;2022-09-09T03:11:53;16.90;81.10
1415;DHT22;702;49.466;11.086;2022-09-09T03:14:21;16.90;81.30
1415;DHT22;702;49.466;11.086;2022-09-09T03:16:51;16.90;81.60
1415;DHT22;702;49.466;11.086;2022-09-09T03:19:20;17.10;81.40
1415;DHT22;702;49.466;11.086;2022-09-09T03:21:47;17.30;81.00
1415;DHT22;702;49.466;11.086;2022-09-09T03:24:15;17.10;81.00
1415;DHT22;702;49.466;11.086;2022-09-09T03:26:43;16.60;81.70
1415;DHT22;702;49.466;11.086;2022-09-09T03:29:12;16.80;81.50
1415;DHT22;702;49.466;11.086;2022-09-09T03:31:40;16.90;81.80
1415;DHT22;702;49.466;11.086;2022-09-09T03:34:09;16.60;81.90
1415;DHT22;702;49.466;11.086;2022-09-09T03:36:37;16.30;82.70
1415;DHT22;702;49.466;11.086;2022-09-09T03:39:04;16.80;82.50
1415;DHT22;702;49.466;11.086;2022-09-09T03:41:31;17.00;81.50
1415;DHT22;702;49.466;11.086;2022-09-09T03:43:59;16.90;81.60
1415;DHT22;702;49.466;11.086;2022-09-09T03:46:26;17.20;81.40
1415;DHT22;702;49.466;11.086;2022-09-09T03:48:53;17.30;80.90
1415;DHT22;702;49.466;11.086;2022-09-09T03:51:22;17.40;80.70
1415;DHT22;702;49.466;11.086;2022-09-09T03:53:50;17.30;80.60
1415;DHT22;702;49.466;11.086;2022-09-09T03:56:17;17.30;80.50
1415;DHT22;702;49.466;11.086;2022-09-09T03:58:47;17.40;80.30
1415;DHT22;702;49.466;11.086;2022-09-09T04:01:14;17.50;80.10
1415;DHT22;702;49.466;11.086;2022-09-09T04:03:44;17.50;80.20
1415;DHT22;702;49.466;11.086;2022-09-09T04:06:12;17.70;79.80
1415;DHT22;702;49.466;11.086;2022-09-09T04:08:42;17.80;79.70
1415;DHT22;702;49.466;11.086;2022-09-09T04:11:10;17.50;80.00
1415;DHT22;702;49.466;11.086;2022-09-09T04:13:38;17.40;80.10
1415;DHT22;702;49.466;11.086;2022-09-09T04:16:06;17.40;80.10
1415;DHT22;702;49.466;11.086;2022-09-09T04:18:35;17.30;80.60
1415;DHT22;702;49.466;11.086;2022-09-09T04:21:03;17.30;80.90
1415;DHT22;702;49.466;11.086;2022-09-09T04:23:32;17.00;80.70
1415;DHT22;702;49.466;11.086;2022-09-09T04:26:02;16.50;81.40
1415;DHT22;702;49.466;11.086;2022-09-09T04:28:31;15.80;83.10
1415;DHT22;702;49.466;11.086;2022-09-09T04:31:04;15.30;84.70
1415;DHT22;702;49.466;11.086;2022-09-09T04:33:33;15.20;85.80
1415;DHT22;702;49.466;11.086;2022-09-09T04:36:01;15.10;86.50
1415;DHT22;702;49.466;11.086;2022-09-09T04:38:28;15.10;87.10
1415;DHT22;702;49.466;11.086;2022-09-09T04:40:56;15.10;87.90
1415;DHT22;702;49.466;11.086;2022-09-09T04:43:25;15.20;88.20
1415;DHT22;702;49.466;11.086;2022-09-09T04:45:53;15.10;88.80
1415;DHT22;702;49.466;11.086;2022-09-09T04:48:21;15.10;88.30
1415;DHT22;702;49.466;11.086;2022-09-09T04:50:56;15.10;89.50
1415;DHT22;702;49.466;11.086;2022-09-09T04:53:25;15.20;88.90
1415;DHT22;702;49.466;11.086;2022-09-09T04:56:00;15.30;88.20
1415;DHT22;702;49.466;11.086;2022-09-09T04:58:30;15.10;88.80
1415;DHT22;702;49.466;11.086;2022-09-09T05:01:03;15.20;88.60
1415;DHT22;702;49.466;11.086;2022-09-09T05:03:32;15.30;89.80
1415;DHT22;702;49.466;11.086;2022-09-09T05:06:07;15.30;87.90
1415;DHT22;702;49.466;11.086;2022-09-09T05:08:36;15.40;88.50
1415;DHT22;702;49.466;11.086;2022-09-09T05:11:04;15.40;88.00
1415;DHT22;702;49.466;11.086;2022-09-09T05:13:32;15.40;88.10
1415;DHT22;702;49.466;11.086;2022-09-09T05:15:59;15.20;88.50
1415;DHT22;702;49.466;11.086;2022-09-09T05:18:27;15.10;89.10
1415;DHT22;702;49.466;11.086;2022-09-09T05:20:58;15.10;88.90
1415;DHT22;702;49.466;11.086;2022-09-09T05:23:26;14.90;89.10
1415;DHT22;702;49.466;11.086;2022-09-09T05:25:55;15.00;89.20
1415;DHT22;702;49.466;11.086;2022-09-09T05:28:23;15.00;88.80
1415;DHT22;702;49.466;11.086;2022-09-09T05:30:59;15.00;88.80
1415;DHT22;702;49.466;11.086;2022-09-09T05:33:29;15.00;88.30
1415;DHT22;702;49.466;11.086;2022-09-09T05:35:57;15.10;88.40
1415;DHT22;702;49.466;11.086;2022-09-09T05:38:26;15.10;87.90
1415;DHT22;702;49.466;11.086;2022-09-09T05:40:53;15.10;87.80
1415;DHT22;702;49.466;11.086;2022-09-09T05:43:21;15.10;87.30
1415;DHT22;702;49.466;11.086;2022-09-09T05:45:57;15.10;87.40
1415;DHT22;702;49.466;11.086;2022-09-09T05:48:32;15.10;87.10
1415;DHT22;702;49.466;11.086;2022-09-09T05:51:00;15.30;87.10
1415;DHT22;702;49.466;11.086;2022-09-09T05:53:29;15.30;86.80
1415;DHT22;702;49.466;11.086;2022-09-09T05:56:02;15.20;86.90
1415;DHT22;702;49.466;11.086;2022-09-09T05:58:31;15.20;88.00
1415;DHT22;702;49.466;11.086;2022-09-09T06:01:04;15.10;87.80
1415;DHT22;702;49.466;11.086;2022-09-09T06:03:34;15.10;88.00
1415;DHT22;702;49.466;11.086;2022-09-09T06:06:04;15.20;88.00
1415;DHT22;702;49.466;11.086;2022-09-09T06:08:33;15.30;87.20
1415;DHT22;702;49.466;11.086;2022-09-09T06:11:06;15.40;86.80
1415;DHT22;702;49.466;11.086;2022-09-09T06:13:34;15.50;86.60
1415;DHT22;702;49.466;11.086;2022-09-09T06:16:04;15.50;85.80
1415;DHT22;702;49.466;11.086;2022-09-09T06:18:32;15.40;86.00
1415;DHT22;702;49.466;11.086;2022-09-09T06:21:02;15.50;86.10
1415;DHT22;702;49.466;11.086;2022-09-09T06:23:31;15.40;85.80
1415;DHT22;702;49.466;11.086;2022-09-09T06:26:05;15.30;85.90
1415;DHT22;702;49.466;11.086;2022-09-09T06:28:34;15.30;86.30
1415;DHT22;702;49.466;11.086;2022-09-09T06:31:06;15.60;85.60
1415;DHT22;702;49.466;11.086;2022-09-09T06:33:36;15.80;84.90
1415;DHT22;702;49.466;11.086;2022-09-09T06:36:07;16.00;84.50
1415;DHT22;702;49.466;11.086;2022-09-09T06:38:38;16.30;83.70
1415;DHT22;702;49.466;11.086;2022-09-09T06:41:05;16.50;83.00
1415;DHT22;702;49.466;11.086;2022-09-09T06:43:33;16.80;82.40
1415;DHT22;702;49.466;11.086;2022-09-09T06:46:02;16.70;81.90
1415;DHT22;702;49.466;11.086;2022-09-09T06:48:33;16.90;81.70
1415;DHT22;702;49.466;11.086;2022-09-09T06:51:01;16.90;81.70
1415;DHT22;702;49.466;11.086;2022-09-09T06:53:30;17.00;81.30
1415;DHT22;702;49.466;11.086;2022-09-09T06:55:59;17.20;81.10
1415;DHT22;702;49.466;11.086;2022-09-09T06:58:27;17.40;81.00
1415;DHT22;702;49.466;11.086;2022-09-09T07:01:02;17.40;80.80
1415;DHT22;702;49.466;11.086;2022-09-09T07:03:30;17.50;80.50
1415;DHT22;702;49.466;11.086;2022-09-09T07:05:58;17.60;80.50
1415;DHT22;702;49.466;11.086;2022-09-09T07:08:25;17.80;80.20
1415;DHT22;702;49.466;11.086;2022-09-09T07:10:53;18.00;79.30
1415;DHT22;702;49.466;11.086;2022-09-09T07:13:23;18.10;78.70
1415;DHT22;702;49.466;11.086;2022-09-09T07:15:51;18.10;78.70
1415;DHT22;702;49.466;11.086;2022-09-09T07:18:18;18.40;78.20
1415;DHT22;702;49.466;11.086;2022-09-09T07:20:53;18.50;77.70
1415;DHT22;702;49.466;11.086;2022-09-09T07:23:24;18.50;77.30
1415;DHT22;702;49.466;11.086;2022-09-09T07:25:51;18.50;77.40
1415;DHT22;702;49.466;11.086;2022-09-09T07:28:19;18.30;77.00
1415;DHT22;702;49.466;11.086;2022-09-09T07:30:53;18.30;77.10
1415;DHT22;702;49.466;11.086;2022-09-09T07:33:21;18.30;77.20
1415;DHT22;702;49.466;11.086;2022-09-09T07:35:48;18.30;76.90
1415;DHT22;702;49.466;11.086;2022-09-09T07:38:16;18.30;76.60
1415;DHT22;702;49.466;11.086;2022-09-09T07:40:44;18.20;76.50
1415;DHT22;702;49.466;11.086;2022-09-09T07:43:12;18.10;76.40
1415;DHT22;702;49.466;11.086;2022-09-09T07:45:39;18.10;76.50
1415;DHT22;702;49.466;11.086;2022-09-09T07:48:08;18.20;76.20
1415;DHT22;702;49.466;11.086;2022-09-09T07:50:36;18.20;76.50
1415;DHT22;702;49.466;11.086;2022-09-09T07:53:04;18.20;76.30
1415;DHT22;702;49.466;11.086;2022-09-09T07:55:32;18.40;76.20
1415;DHT22;702;49.466;11.086;2022-09-09T07:58:00;18.60;76.00
1415;DHT22;702;49.466;11.086;2022-09-09T08:00:27;19.00;75.30
1415;DHT22;702;49.466;11.086;2022-09-09T08:02:54;19.30;74.40
1415;DHT22;702;49.466;11.086;2022-09-09T08:05:23;19.50;74.00
1415;DHT22;702;49.466;11.086;2022-09-09T08:07:51;19.40;74.10
1415;DHT22;702;49.466;11.086;2022-09-09T08:10:18;19.30;74.50
1415;DHT22;702;49.466;11.086;2022-09-09T08:12:45;19.10;74.40
1415;DHT22;702;49.466;11.086;2022-09-09T08:15:14;19.10;74.70
1415;DHT22;702;49.466;11.086;2022-09-09T08:17:41;18.80;74.00
1415;DHT22;702;49.466;11.086;2022-09-09T08:20:09;18.80;74.70
1415;DHT22;702;49.466;11.086;2022-09-09T08:22:36;19.00;74.40
1415;DHT22;702;49.466;11.086;2022-09-09T08:25:05;19.20;74.10
1415;DHT22;702;49.466;11.086;2022-09-09T08:27:34;19.30;73.10
1415;DHT22;702;49.466;11.086;2022-09-09T08:30:01;19.30;73.10
1415;DHT22;702;49.466;11.086;2022-09-09T08:32:30;19.20;72.30
1415;DHT22;702;49.466;11.086;2022-09-09T08:34:57;19.20;72.30
1415;DHT22;702;49.466;11.086;2022-09-09T08:37:25;19.20;72.80
1415;DHT22;702;49.466;11.086;2022-09-09T08:39:52;19.30;72.90
1415;DHT22;702;49.466;11.086;2022-09-09T08:42:32;19.50;72.10
1415;DHT22;702;49.466;11.086;2022-09-09T08:45:23;19.40;71.90
1415;DHT22;702;49.466;11.086;2022-09-09T08:48:11;19.50;71.70
1415;DHT22;702;49.466;11.086;2022-09-09T08:50:50;19.60;71.90
1415;DHT22;702;49.466;11.086;2022-09-09T08:53:21;19.60;72.40
1415;DHT22;702;49.466;11.086;2022-09-09T08:55:52;19.70;72.10
1415;DHT22;702;49.466;11.086;2022-09-09T08:58:22;19.70;71.80
1415;DHT22;702;49.466;11.086;2022-09-09T09:01:01;19.80;71.70
1415;DHT22;702;49.466;11.086;2022-09-09T09:03:47;19.90;71.60
1415;DHT22;702;49.466;11.086;2022-09-09T09:06:29;20.20;71.00
1415;DHT22;702;49.466;11.086;2022-09-09T09:09:11;20.50;71.00
1415;DHT22;702;49.466;11.086;2022-09-09T09:11:48;20.40;70.50
1415;DHT22;702;49.466;11.086;2022-09-09T09:14:19;20.50;70.60
1415;DHT22;702;49.466;11.086;2022-09-09T09:16:52;20.70;70.10
1415;DHT22;702;49.466;11.086;2022-09-09T09:19:22;20.90;68.80
1415;DHT22;702;49.466;11.086;2022-09-09T09:21:56;21.00;69.00
1415;DHT22;702;49.466;11.086;2022-09-09T09:24:30;21.00;69.10
1415;DHT22;702;49.466;11.086;2022-09-09T09:27:13;21.00;68.70
1415;DHT22;702;49.466;11.086;2022-09-09T09:29:42;21.00;67.60
1415;DHT22;702;49.466;11.086;2022-09-09T09:32:14;21.40;68.00
1415;DHT22;702;49.466;11.086;2022-09-09T09:34:50;21.80;65.40
1415;DHT22;702;49.466;11.086;2022-09-09T09:37:25;22.10;65.00
1415;DHT22;702;49.466;11.086;2022-09-09T09:39:54;22.10;64.30
1415;DHT22;702;49.466;11.086;2022-09-09T09:42:22;22.30;64.60
1415;DHT22;702;49.466;11.086;2022-09-09T09:44:50;22.50;63.80
1415;DHT22;702;49.466;11.086;2022-09-09T09:47:19;22.60;64.10
1415;DHT22;702;49.466;11.086;2022-09-09T09:49:53;22.70;62.70
1415;DHT22;702;49.466;11.086;2022-09-09T09:52:23;22.70;62.40
1415;DHT22;702;49.466;11.086;2022-09-09T09:54:52;22.30;61.90
1415;DHT22;702;49.466;11.086;2022-09-09T09:57:26;22.50;62.30
1415;DHT22;702;49.466;11.086;2022-09-09T10:00:04;22.60;62.30
1415;DHT22;702;49.466;11.086;2022-09-09T10:02:41;22.90;61.80
1415;DHT22;702;49.466;11.086;2022-09-09T10:05:19;23.30;60.60
1415;DHT22;702;49.466;11.086;2022-09-09T10:07:47;23.60;60.30
1415;DHT22;702;49.466;11.086;2022-09-09T10:10:37;23.70;59.40
1415;DHT22;702;49.466;11.086;2022-09-09T10:13:19;23.40;58.90
1415;DHT22;702;49.466;11.086;2022-09-09T10:15:58;23.50;59.00
1415;DHT22;702;49.466;11.086;2022-09-09T10:18:47;23.70;58.80
1415;DHT22;702;49.466;11.086;2022-09-09T10:21:32;23.50;59.00
1415;DHT22;702;49.466;11.086;2022-09-09T10:24:36;23.20;58.30
1415;DHT22;702;49.466;11.086;2022-09-09T10:27:17;23.40;58.90
1415;DHT22;702;49.466;11.086;2022-09-09T10:30:05;23.10;58.60
1415;DHT22;702;49.466;11.086;2022-09-09T10:32:41;22.80;58.30
1415;DHT22;702;49.466;11.086;2022-09-09T10:35:24;22.70;58.70
1415;DHT22;702;49.466;11.086;2022-09-09T10:38:15;22.70;58.90
1415;DHT22;702;49.466;11.086;2022-09-09T10:40:58;22.80;59.40
1415;DHT22;702;49.466;11.086;2022-09-09T10:47:24;22.80;59.10
1415;DHT22;702;49.466;11.086;2022-09-09T10:50:23;22.90;58.60
1415;DHT22;702;49.466;11.086;2022-09-09T10:53:05;22.80;58.60
1415;DHT22;702;49.466;11.086;2022-09-09T10:55:41;22.70;58.40
1415;DHT22;702;49.466;11.086;2022-09-09T10:58:13;22.70;58.10
1415;DHT22;702;49.466;11.086;2022-09-09T11:00:50;22.80;58.30
1415;DHT22;702;49.466;11.086;2022-09-09T11:03:22;23.00;58.60
1415;DHT22;702;49.466;11.086;2022-09-09T11:05:56;23.20;58.80
1415;DHT22;702;49.466;11.086;2022-09-09T11:08:30;23.20;58.10
1415;DHT22;702;49.466;11.086;2022-09-09T11:11:03;23.10;58.40
1415;DHT22;702;49.466;11.086;2022-09-09T11:13:37;23.00;58.40
1415;DHT22;702;49.466;11.086;2022-09-09T11:16:19;23.00;58.00
1415;DHT22;702;49.466;11.086;2022-09-09T11:18:57;22.80;57.70
1415;DHT22;702;49.466;11.086;2022-09-09T11:21:44;22.70;58.30
1415;DHT22;702;49.466;11.086;2022-09-09T11:24:20;22.70;58.30
1415;DHT22;702;49.466;11.086;2022-09-09T11:26:53;23.10;58.40
1415;DHT22;702;49.466;11.086;2022-09-09T11:29:45;23.20;57.70
1415;DHT22;702;49.466;11.086;2022-09-09T11:32:44;23.20;57.50
1415;DHT22;702;49.466;11.086;2022-09-09T11:35:31;23.40;58.00
1415;DHT22;702;49.466;11.086;2022-09-09T11:38:15;23.80;57.10
1415;DHT22;702;49.466;11.086;2022-09-09T11:40:46;24.10;56.80
1415;DHT22;702;49.466;11.086;2022-09-09T11:43:27;24.10;55.90
1415;DHT22;702;49.466;11.086;2022-09-09T11:45:58;24.20;56.60
1415;DHT22;702;49.466;11.086;2022-09-09T11:48:38;24.60;56.90
1415;DHT22;702;49.466;11.086;2022-09-09T11:51:10;24.60;56.80
1415;DHT22;702;49.466;11.086;2022-09-09T11:53:50;24.60;55.90
1415;DHT22;702;49.466;11.086;2022-09-09T11:56:29;24.60;56.40
1415;DHT22;702;49.466;11.086;2022-09-09T11:59:02;24.60;56.80
1415;DHT22;702;49.466;11.086;2022-09-09T12:01:36;24.60;56.50
1415;DHT22;702;49.466;11.086;2022-09-09T12:04:17;24.10;56.20
1415;DHT22;702;49.466;11.086;2022-09-09T12:06:57;23.80;55.60
1415;DHT22;702;49.466;11.086;2022-09-09T12:09:32;23.60;55.50
1415;DHT22;702;49.466;11.086;2022-09-09T12:12:25;23.80;55.30
1415;DHT22;702;49.466;11.086;2022-09-09T12:15:21;23.90;54.90
1415;DHT22;702;49.466;11.086;2022-09-09T12:17:52;23.40;54.60
1415;DHT22;702;49.466;11.086;2022-09-09T12:20:22;23.10;54.70
1415;DHT22;702;49.466;11.086;2022-09-09T12:28:55;23.00;55.60
1415;DHT22;702;49.466;11.086;2022-09-09T12:31:34;23.00;54.60
1415;DHT22;702;49.466;11.086;2022-09-09T12:34:10;23.50;54.60
1415;DHT22;702;49.466;11.086;2022-09-09T12:36:40;23.50;51.90
1415;DHT22;702;49.466;11.086;2022-09-09T12:39:18;23.40;52.00
1415;DHT22;702;49.466;11.086;2022-09-09T12:41:53;23.50;51.30
1415;DHT22;702;49.466;11.086;2022-09-09T12:44:25;23.40;51.00
1415;DHT22;702;49.466;11.086;2022-09-09T12:46:55;23.20;51.70
1415;DHT22;702;49.466;11.086;2022-09-09T12:49:31;23.20;52.60
1415;DHT22;702;49.466;11.086;2022-09-09T12:52:03;23.30;53.30
1415;DHT22;702;49.466;11.086;2022-09-09T12:54:33;23.50;54.10
1415;DHT22;702;49.466;11.086;2022-09-09T12:57:02;23.60;54.30
1415;DHT22;702;49.466;11.086;2022-09-09T12:59:37;23.40;54.20
1415;DHT22;702;49.466;11.086;2022-09-09T13:02:16;23.30;53.90
1415;DHT22;702;49.466;11.086;2022-09-09T13:04:45;23.20;54.60
1415;DHT22;702;49.466;11.086;2022-09-09T13:07:14;23.40;54.40
1415;DHT22;702;49.466;11.086;2022-09-09T13:09:42;22.50;56.30
1415;DHT22;702;49.466;11.086;2022-09-09T13:12:14;21.30;58.10
1415;DHT22;702;49.466;11.086;2022-09-09T13:14:46;20.70;58.80
1415;DHT22;702;49.466;11.086;2022-09-09T13:17:20;20.80;59.00
1415;DHT22;702;49.466;11.086;2022-09-09T13:19:50;20.50;58.60
1415;DHT22;702;49.466;11.086;2022-09-09T13:22:23;20.10;59.30
1415;DHT22;702;49.466;11.086;2022-09-09T13:25:01;20.00;60.70
1415;DHT22;702;49.466;11.086;2022-09-09T13:27:34;20.00;61.30
1415;DHT22;702;49.466;11.086;2022-09-09T13:30:23;19.80;62.30
1415;DHT22;702;49.466;11.086;2022-09-09T13:33:03;20.20;62.40
1415;DHT22;702;49.466;11.086;2022-09-09T13:35:33;20.30;62.40
1415;DHT22;702;49.466;11.086;2022-09-09T13:38:07;20.30;62.40
1415;DHT22;702;49.466;11.086;2022-09-09T13:40:36;20.30;62.60
1415;DHT22;702;49.466;11.086;2022-09-09T13:43:04;20.40;63.10
1415;DHT22;702;49.466;11.086;2022-09-09T13:45:33;20.50;62.10
1415;DHT22;702;49.466;11.086;2022-09-09T13:48:09;20.50;62.50
1415;DHT22;702;49.466;11.086;2022-09-09T13:50:38;20.30;63.20
1415;DHT22;702;49.466;11.086;2022-09-09T13:53:07;19.90;64.10
1415;DHT22;702;49.466;11.086;2022-09-09T13:55:36;20.10;64.00
1415;DHT22;702;49.466;11.086;2022-09-09T13:58:04;20.20;63.30
1415;DHT22;702;49.466;11.086;2022-09-09T14:00:34;20.40;62.40
1415;DHT22;702;49.466;11.086;2022-09-09T14:03:02;20.50;60.50
1415;DHT22;702;49.466;11.086;2022-09-09T14:05:31;20.50;59.70
1415;DHT22;702;49.466;11.086;2022-09-09T14:08:00;20.70;59.10
1415;DHT22;702;49.466;11.086;2022-09-09T14:10:28;20.80;58.50
1415;DHT22;702;49.466;11.086;2022-09-09T14:12:55;21.00;59.60
1415;DHT22;702;49.466;11.086;2022-09-09T14:15:23;21.10;58.50
1415;DHT22;702;49.466;11.086;2022-09-09T14:17:52;21.10;58.80
1415;DHT22;702;49.466;11.086;2022-09-09T14:20:19;21.20;58.70
1415;DHT22;702;49.466;11.086;2022-09-09T14:22:48;21.30;59.10
1415;DHT22;702;49.466;11.086;2022-09-09T14:25:16;21.40;59.60
1415;DHT22;702;49.466;11.086;2022-09-09T14:27:43;21.60;59.60
1415;DHT22;702;49.466;11.086;2022-09-09T14:30:12;21.90;59.20
1415;DHT22;702;49.466;11.086;2022-09-09T14:32:39;21.90;58.90
1415;DHT22;702;49.466;11.086;2022-09-09T14:35:09;21.90;58.70
1415;DHT22;702;49.466;11.086;2022-09-09T14:37:37;21.70;59.00
1415;DHT22;702;49.466;11.086;2022-09-09T14:40:06;21.70;59.20
1415;DHT22;702;49.466;11.086;2022-09-09T14:42:34;21.80;59.70
1415;DHT22;702;49.466;11.086;2022-09-09T14:45:01;21.80;60.00
1415;DHT22;702;49.466;11.086;2022-09-09T14:47:28;21.70;59.50
1415;DHT22;702;49.466;11.086;2022-09-09T14:49:55;21.60;59.90
1415;DHT22;702;49.466;11.086;2022-09-09T14:52:24;21.60;60.30
1415;DHT22;702;49.466;11.086;2022-09-09T14:54:51;21.60;60.90
1415;DHT22;702;49.466;11.086;2022-09-09T14:57:19;21.80;60.30
1415;DHT22;702;49.466;11.086;2022-09-09T14:59:46;21.90;60.30
1415;DHT22;702;49.466;11.086;2022-09-09T15:02:15;21.90;60.60
1415;DHT22;702;49.466;11.086;2022-09-09T15:04:43;21.80;60.70
1415;DHT22;702;49.466;11.086;2022-09-09T15:07:11;21.80;61.20
1415;DHT22;702;49.466;11.086;2022-09-09T15:09:40;21.60;61.40
1415;DHT22;702;49.466;11.086;2022-09-09T15:12:07;21.50;61.40
1415;DHT22;702;49.466;11.086;2022-09-09T15:14:35;21.60;62.00
1415;DHT22;702;49.466;11.086;2022-09-09T15:17:03;21.80;62.00
1415;DHT22;702;49.466;11.086;2022-09-09T15:19:30;22.10;61.30
1415;DHT22;702;49.466;11.086;2022-09-09T15:21:58;22.30;61.00
1415;DHT22;702;49.466;11.086;2022-09-09T15:24:25;22.40;60.50
1415;DHT22;702;49.466;11.086;2022-09-09T15:26:54;22.10;60.60
1415;DHT22;702;49.466;11.086;2022-09-09T15:29:22;21.80;60.80
1415;DHT22;702;49.466;11.086;2022-09-09T15:31:49;21.60;61.10
1415;DHT22;702;49.466;11.086;2022-09-09T15:34:16;21.40;61.20
1415;DHT22;702;49.466;11.086;2022-09-09T15:36:44;21.30;61.90
1415;DHT22;702;49.466;11.086;2022-09-09T15:39:14;21.40;62.00
1415;DHT22;702;49.466;11.086;2022-09-09T15:41:42;21.40;61.90
1415;DHT22;702;49.466;11.086;2022-09-09T15:44:12;21.50;61.40
1415;DHT22;702;49.466;11.086;2022-09-09T15:46:41;21.70;61.10
1415;DHT22;702;49.466;11.086;2022-09-09T15:49:10;21.80;60.80
1415;DHT22;702;49.466;11.086;2022-09-09T15:51:40;21.80;60.80
1415;DHT22;702;49.466;11.086;2022-09-09T15:54:09;21.70;60.50
1415;DHT22;702;49.466;11.086;2022-09-09T15:56:37;21.50;59.20
1415;DHT22;702;49.466;11.086;2022-09-09T15:59:05;21.30;58.60
1415;DHT22;702;49.466;11.086;2022-09-09T16:01:33;21.30;59.00
1415;DHT22;702;49.466;11.086;2022-09-09T16:04:01;21.00;56.30
1415;DHT22;702;49.466;11.086;2022-09-09T16:06:29;20.70;56.10
1415;DHT22;702;49.466;11.086;2022-09-09T16:08:58;20.50;57.30
1415;DHT22;702;49.466;11.086;2022-09-09T16:11:29;20.60;57.00
1415;DHT22;702;49.466;11.086;2022-09-09T16:13:59;20.60;55.40
1415;DHT22;702;49.466;11.086;2022-09-09T16:16:28;20.60;55.70
1415;DHT22;702;49.466;11.086;2022-09-09T16:18:59;20.50;55.10
1415;DHT22;702;49.466;11.086;2022-09-09T16:21:28;20.60;55.60
1415;DHT22;702;49.466;11.086;2022-09-09T16:23:59;20.70;55.20
1415;DHT22;702;49.466;11.086;2022-09-09T16:26:27;20.90;55.60
1415;DHT22;702;49.466;11.086;2022-09-09T16:28:55;21.10;54.90
1415;DHT22;702;49.466;11.086;2022-09-09T16:31:25;21.30;55.60
1415;DHT22;702;49.466;11.086;2022-09-09T16:33:54;21.40;55.00
1415;DHT22;702;49.466;11.086;2022-09-09T16:36:24;21.50;54.60
1415;DHT22;702;49.466;11.086;2022-09-09T16:38:52;21.40;54.90
1415;DHT22;702;49.466;11.086;2022-09-09T16:41:21;21.40;55.10
1415;DHT22;702;49.466;11.086;2022-09-09T16:43:52;21.40;54.60